Time;durP1;ratioP1;P1;durP2;ratioP2;P2;SDS_P1;SDS_P2;PMS_P1;PMS_P2;Temp;Humidity;BMP_temperature;BMP_pressure;BME280_temperature;BME280_humidity;BME280_pressure;Samples;Min_cycle;Max_cycle;Signal;HPM_P1;HPM_P2
2024/03/25 00:02:13;;;;;;;3.00;2.37;;;5.10;99.90;;;;;;4972596;28;20184;-67
2024/03/25 00:04:38;;;;;;;5.87;2.70;;;5.10;99.90;;;;;;4995675;23;20683;-66
2024/03/25 00:07:04;;;;;;;4.80;3.00;;;5.00;99.90;;;;;;4986330;28;20263;-66
2024/03/25 00:09:30;;;;;;;14.20;4.70;;;5.00;99.90;;;;;;4990528;28;20184;-66
2024/03/25 00:11:55;;;;;;;4.50;2.43;;;5.00;99.90;;;;;;4991877;28;20180;-66
2024/03/25 00:14:21;;;;;;;5.47;3.20;;;4.90;99.90;;;;;;4993989;28;20215;-66
2024/03/25 00:16:47;;;;;;;4.60;2.70;;;4.90;99.90;;;;;;4999366;28;20182;-66
2024/03/25 00:19:13;;;;;;;3.47;3.17;;;4.90;99.90;;;;;;4992311;28;20805;-66
2024/03/25 00:21:38;;;;;;;5.83;3.30;;;4.90;99.90;;;;;;4993034;28;20181;-66
2024/03/25 00:24:04;;;;;;;3.60;2.87;;;4.80;99.90;;;;;;4999136;28;20261;-66
2024/03/25 00:26:29;;;;;;;4.50;3.27;;;4.80;99.90;;;;;;4996095;28;20182;-66
2024/03/25 00:28:55;;;;;;;4.50;3.10;;;4.80;99.90;;;;;;4988055;28;20679;-67
2024/03/25 00:31:20;;;;;;;4.80;3.70;;;4.70;99.90;;;;;;4994112;28;20195;-66
2024/03/25 00:33:46;;;;;;;4.80;2.90;;;4.70;99.90;;;;;;4995174;28;20575;-66
2024/03/25 00:36:12;;;;;;;4.07;3.50;;;4.70;99.90;;;;;;4993847;28;20258;-66
2024/03/25 00:38:38;;;;;;;4.70;3.10;;;4.70;99.90;;;;;;4992172;28;20477;-66
2024/03/25 00:41:04;;;;;;;3.37;2.90;;;4.70;99.90;;;;;;4998852;28;20183;-66
2024/03/25 00:43:29;;;;;;;6.10;3.33;;;4.60;99.90;;;;;;4998279;28;20206;-66
2024/03/25 00:45:56;;;;;;;5.87;3.30;;;4.60;99.90;;;;;;4996094;28;20680;-66
2024/03/25 00:48:22;;;;;;;4.30;3.20;;;4.60;99.90;;;;;;4989058;28;20199;-66
2024/03/25 00:50:48;;;;;;;8.03;4.10;;;4.60;99.90;;;;;;4995291;28;20528;-66
2024/03/25 00:53:14;;;;;;;3.87;3.47;;;4.50;99.90;;;;;;5003991;28;20950;-66
2024/03/25 00:55:39;;;;;;;9.30;4.40;;;4.50;99.90;;;;;;4992683;28;20179;-66
2024/03/25 00:58:05;;;;;;;6.63;3.87;;;4.50;99.90;;;;;;4998964;28;20438;-66
2024/03/25 01:00:30;;;;;;;5.67;2.73;;;4.50;99.90;;;;;;4994442;28;20207;-66
2024/03/25 01:02:56;;;;;;;6.87;3.07;;;4.50;99.90;;;;;;4995159;28;20199;-66
2024/03/25 01:05:22;;;;;;;6.10;3.10;;;4.50;99.90;;;;;;4985052;28;20184;-66
2024/03/25 01:07:48;;;;;;;5.90;3.43;;;4.50;99.90;;;;;;4992929;28;20262;-66
2024/03/25 01:10:14;;;;;;;4.70;3.37;;;4.50;99.90;;;;;;4990379;28;20180;-66
2024/03/25 01:12:40;;;;;;;8.20;3.93;;;4.40;99.90;;;;;;4996244;28;20432;-66
2024/03/25 01:15:07;;;;;;;3.87;3.50;;;4.40;99.90;;;;;;4993413;28;20525;-66
2024/03/25 01:17:32;;;;;;;3.60;3.30;;;4.40;99.90;;;;;;5011163;28;20206;-66
2024/03/25 01:19:58;;;;;;;3.93;3.40;;;4.30;99.90;;;;;;5004099;28;20964;-66
2024/03/25 01:22:24;;;;;;;6.33;3.00;;;4.30;99.90;;;;;;4998427;28;20270;-66
2024/03/25 01:24:49;;;;;;;4.63;3.23;;;4.30;99.90;;;;;;4994500;28;20226;-66
2024/03/25 01:27:15;;;;;;;6.67;3.20;;;4.30;99.90;;;;;;4991549;28;20184;-66
2024/03/25 01:29:40;;;;;;;4.23;3.27;;;4.20;99.90;;;;;;4991546;28;21101;-66
2024/03/25 01:32:06;;;;;;;4.77;3.23;;;4.20;99.90;;;;;;4993649;28;20186;-66
2024/03/25 01:34:32;;;;;;;5.47;3.40;;;4.20;99.90;;;;;;4991704;28;20207;-66
2024/03/25 01:36:57;;;;;;;4.57;3.60;;;4.10;99.90;;;;;;4992499;28;20499;-66
2024/03/25 01:39:24;;;;;;;5.67;3.70;;;4.10;99.90;;;;;;4991296;28;20208;-66
2024/03/25 01:41:50;;;;;;;5.77;3.40;;;4.10;99.90;;;;;;4995342;28;20184;-66
2024/03/25 01:44:15;;;;;;;6.10;3.40;;;4.10;99.90;;;;;;4993861;28;20477;-66
2024/03/25 01:46:42;;;;;;;5.80;3.70;;;4.10;99.90;;;;;;5007532;28;20183;-66
2024/03/25 01:49:08;;;;;;;3.90;3.47;;;4.10;99.90;;;;;;4992174;28;20179;-66
2024/03/25 01:51:35;;;;;;;4.50;3.37;;;4.10;99.90;;;;;;4991220;28;20775;-66
2024/03/25 01:54:01;;;;;;;6.43;3.40;;;4.10;99.90;;;;;;4991122;28;20230;-66
2024/03/25 01:56:29;;;;;;;6.03;4.00;;;4.20;99.90;;;;;;4996299;28;20461;-66
2024/03/25 01:58:55;;;;;;;5.23;3.53;;;4.20;99.90;;;;;;4993384;28;20463;-67
2024/03/25 02:01:22;;;;;;;4.37;3.27;;;4.20;99.90;;;;;;4995650;28;20461;-66
2024/03/25 02:03:47;;;;;;;4.20;3.30;;;4.30;99.90;;;;;;4992502;28;20955;-66
2024/03/25 02:06:15;;;;;;;4.53;3.40;;;4.30;99.90;;;;;;5001648;28;20462;-66
2024/03/25 02:08:42;;;;;;;5.80;3.60;;;4.30;99.90;;;;;;4991897;28;20732;-66
2024/03/25 02:11:08;;;;;;;4.07;3.40;;;4.40;99.90;;;;;;4990198;28;20439;-66
2024/03/25 02:13:35;;;;;;;6.40;3.90;;;4.40;99.90;;;;;;4990591;28;20480;-66
2024/03/25 02:16:01;;;;;;;4.83;3.80;;;4.50;99.90;;;;;;5000695;28;20440;-66
2024/03/25 02:18:26;;;;;;;6.93;3.60;;;4.50;99.90;;;;;;5013395;28;20830;-66
2024/03/25 02:20:52;;;;;;;4.70;3.50;;;4.50;99.90;;;;;;5002306;28;20265;-67
2024/03/25 02:23:19;;;;;;;10.30;3.53;;;4.50;99.90;;;;;;4996851;28;20234;-66
2024/03/25 02:25:50;;;;;;;3.80;3.03;;;4.50;99.90;;;;;;4994354;28;20196;-67
2024/03/25 02:28:16;;;;;;;4.73;3.00;;;4.60;99.90;;;;;;4996678;28;20467;-66
2024/03/25 02:30:41;;;;;;;7.43;2.97;;;4.60;99.90;;;;;;5002124;28;20486;-66
2024/03/25 02:33:07;;;;;;;8.63;3.83;;;4.60;99.90;;;;;;4993155;28;20238;-67
2024/03/25 02:35:32;;;;;;;5.20;3.50;;;4.60;99.90;;;;;;4995058;28;20184;-66
2024/03/25 02:37:58;;;;;;;7.17;4.23;;;4.50;99.90;;;;;;4993345;28;20188;-66
2024/03/25 02:40:24;;;;;;;5.53;3.10;;;4.60;99.90;;;;;;4994126;28;20230;-67
2024/03/25 02:42:50;;;;;;;7.90;3.93;;;4.60;99.90;;;;;;4995411;28;20265;-66
2024/03/25 02:45:15;;;;;;;6.40;4.40;;;4.70;99.90;;;;;;4994886;28;20998;-66
2024/03/25 02:47:43;;;;;;;6.10;3.77;;;4.70;99.90;;;;;;4999489;28;20182;-66
2024/03/25 02:50:09;;;;;;;6.93;3.73;;;4.60;99.90;;;;;;4994831;28;20659;-66
2024/03/25 02:52:34;;;;;;;6.83;3.80;;;4.60;99.90;;;;;;4992205;28;20466;-66
2024/03/25 02:55:00;;;;;;;4.73;3.70;;;4.70;99.90;;;;;;4993777;28;20214;-66
2024/03/25 02:57:25;;;;;;;4.37;3.20;;;4.60;99.90;;;;;;4997650;28;20187;-66
2024/03/25 02:59:51;;;;;;;4.80;4.00;;;4.60;99.90;;;;;;5000907;28;20195;-67
2024/03/25 03:02:17;;;;;;;9.10;3.73;;;4.70;99.90;;;;;;4999527;28;20175;-66
2024/03/25 03:04:42;;;;;;;8.03;3.83;;;4.70;99.90;;;;;;4996266;28;20239;-66
2024/03/25 03:07:08;;;;;;;7.13;3.17;;;4.70;99.90;;;;;;4993760;28;20183;-66
2024/03/25 03:09:33;;;;;;;6.00;4.07;;;4.60;99.90;;;;;;4993809;28;20200;-66
2024/03/25 03:11:59;;;;;;;4.43;3.80;;;4.70;99.90;;;;;;4993742;28;20184;-66
2024/03/25 03:14:24;;;;;;;5.03;3.53;;;4.60;99.90;;;;;;4993845;28;20226;-66
2024/03/25 03:16:54;;;;;;;6.40;3.73;;;4.60;99.90;;;;;;4995303;28;20266;-66
2024/03/25 03:19:20;;;;;;;4.93;3.30;;;4.60;99.90;;;;;;4994190;28;20246;-67
2024/03/25 03:21:45;;;;;;;5.20;3.50;;;4.60;99.90;;;;;;5005523;28;20430;-66
2024/03/25 03:24:11;;;;;;;4.20;3.80;;;4.60;99.90;;;;;;4992313;28;20210;-66
2024/03/25 03:26:36;;;;;;;6.50;3.93;;;4.60;99.90;;;;;;4993104;28;20175;-66
2024/03/25 03:29:02;;;;;;;4.03;3.63;;;4.60;99.90;;;;;;4994120;28;20175;-66
2024/03/25 03:31:28;;;;;;;5.93;4.27;;;4.50;99.90;;;;;;4994106;28;20168;-67
2024/03/25 03:33:53;;;;;;;4.90;3.77;;;4.50;99.90;;;;;;4990025;28;20505;-66
2024/03/25 03:36:22;;;;;;;6.97;3.70;;;4.50;99.90;;;;;;4994525;28;20184;-67
2024/03/25 03:38:50;;;;;;;7.60;4.07;;;4.50;99.90;;;;;;4995080;28;20278;-66
2024/03/25 03:41:16;;;;;;;6.13;4.00;;;4.50;99.90;;;;;;4993512;28;20466;-66
2024/03/25 03:43:41;;;;;;;5.27;4.10;;;4.40;99.90;;;;;;4993684;28;20981;-67
2024/03/25 03:46:07;;;;;;;7.03;6.43;;;4.40;99.90;;;;;;4992538;28;20560;-67
2024/03/25 03:48:32;;;;;;;7.63;4.20;;;4.40;99.90;;;;;;4992846;28;20175;-67
2024/03/25 03:50:58;;;;;;;6.00;4.47;;;4.40;99.90;;;;;;4992927;28;20191;-66
2024/03/25 03:53:24;;;;;;;4.83;3.70;;;4.40;99.90;;;;;;4993078;28;20208;-66
2024/03/25 03:56:01;;;;;;;4.57;4.10;;;4.40;99.90;;;;;;4995956;28;20179;-67
2024/03/25 03:58:27;;;;;;;5.97;4.07;;;4.40;99.90;;;;;;5007288;28;20261;-66
2024/03/25 04:00:53;;;;;;;6.67;3.97;;;4.40;99.90;;;;;;5006157;28;20821;-66
2024/03/25 04:03:19;;;;;;;5.17;4.43;;;4.40;99.90;;;;;;4993921;28;20474;-66
2024/03/25 04:05:45;;;;;;;5.13;4.00;;;4.40;99.90;;;;;;4998105;28;20187;-69
2024/03/25 04:08:10;;;;;;;4.70;3.87;;;4.40;99.90;;;;;;4997792;28;20561;-67
2024/03/25 04:10:36;;;;;;;5.87;4.57;;;4.50;99.90;;;;;;4998235;28;20435;-66
2024/03/25 04:13:03;;;;;;;7.00;4.77;;;4.50;99.90;;;;;;4993204;28;20199;-66
2024/03/25 04:15:32;;;;;;;4.57;4.07;;;4.50;99.90;;;;;;4993947;28;20993;-67
2024/03/25 04:17:57;;;;;;;4.97;4.10;;;4.40;99.90;;;;;;4997300;28;20435;-66
2024/03/25 04:20:23;;;;;;;8.67;4.30;;;4.50;99.90;;;;;;5010282;28;20483;-67
2024/03/25 04:22:49;;;;;;;5.57;4.37;;;4.40;99.90;;;;;;5009741;28;20174;-66
2024/03/25 04:25:14;;;;;;;5.23;3.47;;;4.40;99.90;;;;;;4991633;28;20439;-66
2024/03/25 04:27:41;;;;;;;6.80;4.07;;;4.30;99.90;;;;;;4999588;28;20186;-67
2024/03/25 04:30:08;;;;;;;6.47;4.10;;;4.30;99.90;;;;;;5011453;28;20208;-66
2024/03/25 04:32:34;;;;;;;9.13;4.23;;;4.30;99.90;;;;;;4993538;28;20442;-67
2024/03/25 04:35:00;;;;;;;10.33;4.53;;;4.30;99.90;;;;;;4990119;28;20469;-66
2024/03/25 04:37:27;;;;;;;11.43;4.40;;;4.20;99.90;;;;;;4990363;28;20439;-66
2024/03/25 04:39:53;;;;;;;6.07;4.77;;;4.20;99.90;;;;;;4991855;28;20191;-66
2024/03/25 04:42:19;;;;;;;5.80;4.90;;;4.20;99.90;;;;;;4992854;28;20465;-66
2024/03/25 04:44:44;;;;;;;8.70;4.53;;;4.20;99.90;;;;;;4991619;28;20204;-67
2024/03/25 04:47:10;;;;;;;6.77;4.03;;;4.20;99.90;;;;;;4991438;28;20180;-67
2024/03/25 04:49:35;;;;;;;5.30;4.37;;;4.20;99.90;;;;;;4991761;28;20191;-66
2024/03/25 04:52:03;;;;;;;7.50;3.80;;;4.30;99.90;;;;;;4993007;28;20179;-66
2024/03/25 04:54:28;;;;;;;7.27;4.33;;;4.30;99.90;;;;;;4990047;28;20197;-66
2024/03/25 04:56:54;;;;;;;6.97;5.60;;;4.20;99.90;;;;;;4989908;28;20994;-66
2024/03/25 04:59:19;;;;;;;7.47;4.30;;;4.30;99.90;;;;;;4992554;28;20262;-66
2024/03/25 05:01:44;;;;;;;4.53;4.07;;;4.30;99.90;;;;;;4993051;28;20259;-66
2024/03/25 05:04:10;;;;;;;7.03;4.33;;;4.30;99.90;;;;;;4996232;28;20298;-66
2024/03/25 05:06:35;;;;;;;5.60;5.10;;;4.30;99.90;;;;;;4991359;28;20719;-66
2024/03/25 05:09:01;;;;;;;7.50;4.80;;;4.30;99.90;;;;;;4991538;28;20187;-66
2024/03/25 05:11:27;;;;;;;6.60;4.70;;;4.40;99.90;;;;;;4992515;28;20175;-69
2024/03/25 05:13:52;;;;;;;8.60;4.97;;;4.40;99.90;;;;;;4992505;28;20206;-66
2024/03/25 05:16:18;;;;;;;5.80;3.57;;;4.40;99.90;;;;;;4989842;28;20219;-66
2024/03/25 05:18:43;;;;;;;21.23;5.73;;;4.30;99.90;;;;;;4997091;28;20325;-66
2024/03/25 05:21:09;;;;;;;9.23;4.70;;;4.30;99.90;;;;;;4992467;28;20175;-66
2024/03/25 05:23:35;;;;;;;4.57;4.17;;;4.30;99.90;;;;;;5000418;28;20274;-66
2024/03/25 05:26:00;;;;;;;6.20;4.50;;;4.30;99.90;;;;;;4991206;28;20867;-67
2024/03/25 05:28:26;;;;;;;4.90;3.80;;;4.30;99.90;;;;;;4991717;28;20179;-66
2024/03/25 05:30:51;;;;;;;8.03;4.10;;;4.30;99.90;;;;;;4990533;28;20187;-67
2024/03/25 05:33:17;;;;;;;6.37;4.30;;;4.40;99.90;;;;;;4995606;28;20200;-66
2024/03/25 05:35:42;;;;;;;4.27;3.63;;;4.40;99.90;;;;;;4991408;28;20211;-66
2024/03/25 05:38:08;;;;;;;5.00;4.40;;;4.30;99.90;;;;;;4989679;28;20270;-66
2024/03/25 05:40:33;;;;;;;12.07;5.90;;;4.40;99.90;;;;;;4986132;28;20676;-66
2024/03/25 05:42:59;;;;;;;8.50;4.50;;;4.40;99.90;;;;;;4991337;28;20195;-66
2024/03/25 05:45:24;;;;;;;7.20;4.40;;;4.40;99.90;;;;;;4992385;28;20234;-66
2024/03/25 05:47:50;;;;;;;6.93;4.30;;;4.40;99.90;;;;;;4990796;28;20230;-67
2024/03/25 05:50:16;;;;;;;9.13;4.20;;;4.40;99.90;;;;;;4999068;28;20258;-66
2024/03/25 05:52:42;;;;;;;9.00;4.40;;;4.50;99.90;;;;;;5008395;28;20167;-67
2024/03/25 05:55:09;;;;;;;8.93;4.30;;;4.50;99.90;;;;;;5005043;28;20207;-66
2024/03/25 05:57:35;;;;;;;5.80;4.10;;;4.50;99.90;;;;;;4992507;28;20179;-66
2024/03/25 06:00:01;;;;;;;9.60;5.03;;;4.60;99.90;;;;;;4995257;28;20978;-66
2024/03/25 06:02:26;;;;;;;6.90;4.80;;;4.60;99.90;;;;;;4992298;28;20180;-66
2024/03/25 06:04:52;;;;;;;4.77;4.10;;;4.70;99.90;;;;;;5001040;23;20224;-66
2024/03/25 06:07:17;;;;;;;5.83;3.73;;;4.80;99.90;;;;;;4974642;28;20177;-66
2024/03/25 06:09:44;;;;;;;4.83;4.40;;;4.80;99.90;;;;;;4971804;28;20203;-66
2024/03/25 06:12:09;;;;;;;4.73;4.27;;;4.90;99.90;;;;;;4974966;28;20188;-66
2024/03/25 06:14:35;;;;;;;7.27;4.20;;;5.00;99.90;;;;;;4975965;28;20459;-66
2024/03/25 06:17:00;;;;;;;4.37;3.87;;;5.10;99.90;;;;;;4974481;28;20199;-66
2024/03/25 06:19:26;;;;;;;5.03;4.17;;;5.30;99.90;;;;;;4975250;28;20192;-66
2024/03/25 06:21:51;;;;;;;7.50;3.90;;;5.30;99.90;;;;;;4975459;28;20239;-66
2024/03/25 06:24:17;;;;;;;7.23;4.37;;;5.40;99.90;;;;;;4975918;28;20636;-66
2024/03/25 06:26:42;;;;;;;8.37;4.90;;;5.50;99.90;;;;;;4970127;28;20271;-66
2024/03/25 06:29:08;;;;;;;5.77;4.33;;;5.60;99.90;;;;;;4976149;28;20240;-66
2024/03/25 06:34:18;;;;;;;7.27;5.33;;;5.60;99.90;;;;;;4973642;28;20266;-66
2024/03/25 06:36:44;;;;;;;4.77;4.20;;;5.70;99.90;;;;;;4971881;28;20427;-66
2024/03/25 06:39:10;;;;;;;5.13;3.87;;;5.80;99.90;;;;;;4975019;28;20212;-66
2024/03/25 06:41:35;;;;;;;6.30;4.40;;;5.80;99.90;;;;;;4972136;28;20439;-66
2024/03/25 06:44:01;;;;;;;7.67;4.50;;;5.80;99.90;;;;;;4973217;28;20278;-67
2024/03/25 06:46:27;;;;;;;7.53;5.17;;;5.80;99.90;;;;;;4965927;28;20324;-67
2024/03/25 06:48:52;;;;;;;6.83;4.60;;;5.80;99.90;;;;;;4974576;28;20318;-66
2024/03/25 06:51:18;;;;;;;5.67;4.47;;;5.80;99.90;;;;;;4969459;28;20424;-65
2024/03/25 06:53:44;;;;;;;11.30;4.20;;;5.70;99.90;;;;;;4970604;28;20200;-66
2024/03/25 06:56:10;;;;;;;8.30;4.30;;;5.80;99.90;;;;;;4970511;28;20203;-66
2024/03/25 06:58:35;;;;;;;9.33;4.30;;;5.70;99.90;;;;;;4973601;28;20952;-67
2024/03/25 07:01:06;;;;;;;7.47;4.83;;;5.70;99.90;;;;;;4971681;28;20211;-67
2024/03/25 07:03:32;;;;;;;7.10;4.13;;;5.80;99.90;;;;;;4973366;28;20336;-67
2024/03/25 07:06:00;;;;;;;6.60;4.83;;;5.80;99.90;;;;;;4975048;28;20952;-67
2024/03/25 07:08:30;;;;;;;7.40;5.23;;;5.90;99.90;;;;;;4974470;28;20420;-67
2024/03/25 07:10:55;;;;;;;6.00;4.83;;;6.10;99.90;;;;;;4975311;28;20851;-67
2024/03/25 07:13:21;;;;;;;6.80;4.30;;;6.60;99.90;;;;;;4974938;28;20458;-67
2024/03/25 07:15:46;;;;;;;8.73;4.80;;;7.00;99.90;;;;;;4973948;28;20172;-66
2024/03/25 07:18:13;;;;;;;3.83;3.53;;;7.30;99.90;;;;;;4974064;28;20177;-66
2024/03/25 07:20:41;;;;;;;6.43;3.80;;;7.60;99.90;;;;;;4975059;28;20638;-67
2024/03/25 07:23:07;;;;;;;5.23;3.40;;;7.60;99.90;;;;;;4974594;28;20498;-66
2024/03/25 07:25:33;;;;;;;6.73;4.17;;;7.80;99.90;;;;;;4974835;28;20494;-66
2024/03/25 07:27:58;;;;;;;6.00;3.53;;;7.90;99.90;;;;;;4974099;28;20200;-66
2024/03/25 07:30:27;;;;;;;5.70;4.17;;;8.00;99.90;;;;;;4974723;28;20540;-66
2024/03/25 07:32:53;;;;;;;5.00;4.47;;;8.20;99.90;;;;;;4974596;28;20172;-66
2024/03/25 07:35:19;;;;;;;5.00;3.53;;;8.40;99.90;;;;;;4974567;28;20443;-66
2024/03/25 07:37:45;;;;;;;5.07;4.27;;;8.70;99.90;;;;;;4972607;28;20862;-66
2024/03/25 07:40:11;;;;;;;4.83;3.73;;;9.10;99.90;;;;;;4958259;28;20264;-66
2024/03/25 07:42:37;;;;;;;4.33;3.57;;;9.20;99.90;;;;;;4955202;29;20176;-66
2024/03/25 07:45:04;;;;;;;6.13;3.30;;;9.40;99.90;;;;;;4955234;28;20954;-66
2024/03/25 07:47:30;;;;;;;7.03;4.30;;;9.70;99.90;;;;;;4954437;28;20515;-66
2024/03/25 07:49:56;;;;;;;8.57;4.40;;;10.10;99.90;;;;;;4955102;28;20507;-66
2024/03/25 07:52:21;;;;;;;6.33;3.93;;;10.20;99.90;;;;;;4955114;29;20180;-66
2024/03/25 07:54:47;;;;;;;5.40;4.57;;;10.10;99.90;;;;;;4956460;28;20197;-66
2024/03/25 07:57:12;;;;;;;6.80;3.60;;;10.40;99.90;;;;;;4973218;28;20648;-66
2024/03/25 07:59:38;;;;;;;4.20;3.77;;;10.80;99.90;;;;;;4974263;28;20681;-66
2024/03/25 08:02:04;;;;;;;5.10;3.27;;;11.30;99.90;;;;;;4974152;28;20172;-67
2024/03/25 08:04:29;;;;;;;6.13;4.40;;;11.60;99.90;;;;;;4974059;28;20219;-66
2024/03/25 08:06:55;;;;;;;3.90;3.50;;;11.90;99.90;;;;;;4973357;28;20172;-66
2024/03/25 08:09:20;;;;;;;4.67;2.70;;;12.10;99.90;;;;;;4974145;28;20259;-67
2024/03/25 08:11:46;;;;;;;4.43;3.53;;;12.40;99.90;;;;;;4973452;28;20252;-67
2024/03/25 08:14:12;;;;;;;5.93;3.00;;;12.80;99.90;;;;;;4962541;28;20299;-66
2024/03/25 08:16:38;;;;;;;3.50;3.10;;;12.60;99.90;;;;;;4971568;28;20172;-67
2024/03/25 08:19:03;;;;;;;3.97;3.33;;;12.80;99.90;;;;;;4973800;28;20430;-67
2024/03/25 08:21:29;;;;;;;3.57;2.37;;;13.10;99.90;;;;;;4973467;28;20482;-67
2024/03/25 08:23:55;;;;;;;6.17;3.17;;;13.30;99.90;;;;;;4972030;28;20638;-68
2024/03/25 08:26:20;;;;;;;5.00;2.37;;;13.60;98.30;;;;;;4973263;28;20218;-65
2024/03/25 08:28:48;;;;;;;2.47;1.90;;;13.00;97.10;;;;;;4973005;28;20176;-66
2024/03/25 08:31:14;;;;;;;3.93;2.90;;;12.70;96.80;;;;;;4971095;28;20605;-66
2024/03/25 08:33:39;;;;;;;3.00;2.10;;;12.80;97.40;;;;;;4970230;28;20487;-66
2024/03/25 08:36:05;;;;;;;3.27;2.50;;;13.20;95.90;;;;;;4970308;28;20266;-66
2024/03/25 08:38:30;;;;;;;5.60;2.07;;;13.80;95.30;;;;;;4971857;28;20183;-66
2024/03/25 08:40:56;;;;;;;3.13;2.33;;;14.20;91.60;;;;;;4968714;28;20212;-67
2024/03/25 08:43:21;;;;;;;4.70;2.13;;;14.60;88.00;;;;;;4972377;28;20693;-65
2024/03/25 08:45:47;;;;;;;5.50;2.43;;;14.60;85.60;;;;;;4971435;28;20267;-65
2024/03/25 08:48:12;;;;;;;4.50;3.00;;;14.80;83.70;;;;;;4976719;28;20176;-65
2024/03/25 08:50:38;;;;;;;4.17;2.90;;;15.30;78.90;;;;;;4977992;28;20184;-64
2024/03/25 08:53:04;;;;;;;3.17;2.67;;;14.50;80.90;;;;;;4975207;28;20193;-65
2024/03/25 08:55:30;;;;;;;5.40;2.90;;;13.90;81.90;;;;;;4975655;28;20192;-65
2024/03/25 08:57:58;;;;;;;2.60;2.40;;;13.60;86.80;;;;;;4976985;28;20971;-66
2024/03/25 09:00:24;;;;;;;3.90;2.47;;;13.50;89.10;;;;;;4970940;28;20463;-66
2024/03/25 09:02:50;;;;;;;2.67;2.23;;;14.10;86.90;;;;;;4973802;28;20483;-66
2024/03/25 09:05:18;;;;;;;2.93;2.63;;;14.90;80.80;;;;;;4972849;28;20474;-67
2024/03/25 09:07:52;;;;;;;3.20;3.00;;;15.70;73.90;;;;;;4972430;28;20584;-67
2024/03/25 09:13:03;;;;;;;3.37;2.80;;;16.10;64.80;;;;;;4973039;28;20489;-67
2024/03/25 09:15:29;;;;;;;2.83;2.63;;;16.20;66.10;;;;;;4972879;28;20490;-66
2024/03/25 09:17:54;;;;;;;2.73;2.40;;;16.50;63.10;;;;;;4972668;28;20423;-67
2024/03/25 09:20:20;;;;;;;2.27;1.70;;;15.70;60.00;;;;;;4972743;28;20459;-67
2024/03/25 09:22:48;;;;;;;3.20;2.40;;;15.00;63.20;;;;;;4972955;28;20195;-67
2024/03/25 09:25:17;;;;;;;3.50;2.40;;;14.30;69.30;;;;;;4976023;28;20439;-67
2024/03/25 09:27:50;;;;;;;3.67;2.23;;;14.60;68.00;;;;;;4974929;28;20926;-67
2024/03/25 09:30:15;;;;;;;6.47;2.83;;;13.60;65.90;;;;;;4976908;28;20503;-67
2024/03/25 09:32:42;;;;;;;2.23;2.10;;;13.60;67.70;;;;;;4975537;28;20503;-66
2024/03/25 09:35:08;;;;;;;3.17;1.97;;;13.80;66.00;;;;;;4976796;28;20210;-66
2024/03/25 09:37:34;;;;;;;4.37;2.97;;;13.80;63.50;;;;;;4975809;28;20519;-66
2024/03/25 09:40:00;;;;;;;3.83;2.30;;;14.80;60.90;;;;;;4976409;28;20554;-66
2024/03/25 09:42:26;;;;;;;3.80;3.00;;;14.80;58.90;;;;;;4976697;28;20234;-67
2024/03/25 09:44:55;;;;;;;3.73;2.40;;;14.60;58.80;;;;;;4976602;28;20187;-67
2024/03/25 09:47:21;;;;;;;2.27;2.10;;;14.40;59.70;;;;;;4975903;28;20439;-66
2024/03/25 09:49:48;;;;;;;3.90;2.67;;;13.80;63.60;;;;;;4976457;28;20419;-66
2024/03/25 09:52:14;;;;;;;4.90;2.10;;;13.80;63.60;;;;;;4976359;28;20485;-66
2024/03/25 09:54:40;;;;;;;2.43;2.23;;;13.90;63.50;;;;;;4976403;28;20527;-66
2024/03/25 09:57:07;;;;;;;3.00;2.53;;;13.90;62.30;;;;;;4975697;28;20457;-65
2024/03/25 09:59:33;;;;;;;2.70;2.50;;;13.50;61.50;;;;;;4976299;28;20286;-66
2024/03/25 10:02:00;;;;;;;2.47;2.27;;;13.60;65.80;;;;;;4976240;28;20526;-66
2024/03/25 10:04:26;;;;;;;4.53;3.07;;;14.80;60.30;;;;;;4974356;28;20208;-66
2024/03/25 10:06:51;;;;;;;2.20;2.10;;;16.20;54.90;;;;;;4974548;28;20955;-66
2024/03/25 10:09:21;;;;;;;2.87;2.67;;;17.80;49.90;;;;;;4975071;28;20192;-67
2024/03/25 10:11:50;;;;;;;3.60;2.33;;;19.50;45.30;;;;;;4975315;28;20227;-66
2024/03/25 10:14:21;;;;;;;2.20;2.00;;;21.70;38.80;;;;;;4973750;28;20486;-67
2024/03/25 10:16:49;;;;;;;5.17;4.00;;;21.60;33.40;;;;;;4975454;28;20431;-67
2024/03/25 10:19:15;;;;;;;2.53;2.20;;;20.70;34.00;;;;;;4976031;28;20463;-66
2024/03/25 10:21:40;;;;;;;4.00;3.60;;;21.90;32.40;;;;;;4975919;28;20431;-67
2024/03/25 10:24:06;;;;;;;2.90;2.70;;;22.30;30.60;;;;;;4975766;28;20201;-66
2024/03/25 10:26:32;;;;;;;2.60;2.40;;;21.70;30.00;;;;;;4975334;28;20680;-66
2024/03/25 10:28:59;;;;;;;3.23;2.17;;;20.40;30.30;;;;;;4975694;28;20925;-66
2024/03/25 10:31:25;;;;;;;2.70;2.50;;;19.80;31.80;;;;;;4975805;28;20427;-66
2024/03/25 10:33:51;;;;;;;2.53;2.30;;;20.10;31.30;;;;;;4975511;28;20439;-67
2024/03/25 10:36:16;;;;;;;2.93;2.73;;;18.70;32.20;;;;;;4974354;28;20175;-66
2024/03/25 10:38:45;;;;;;;2.40;2.20;;;17.90;33.10;;;;;;4975241;28;20414;-66
2024/03/25 10:41:12;;;;;;;6.23;3.43;;;17.60;34.50;;;;;;4975659;28;20200;-65
2024/03/25 10:43:38;;;;;;;2.60;2.40;;;16.80;35.30;;;;;;4975622;28;20447;-65
2024/03/25 10:46:04;;;;;;;3.33;2.83;;;16.10;36.40;;;;;;4975032;28;20431;-65
2024/03/25 10:48:37;;;;;;;2.80;2.60;;;15.60;39.30;;;;;;4974781;28;20420;-65
2024/03/25 10:51:06;;;;;;;7.23;5.13;;;14.70;39.70;;;;;;4975542;28;20427;-66
2024/03/25 10:53:35;;;;;;;4.27;3.57;;;14.30;41.00;;;;;;4974871;28;20968;-66
2024/03/25 10:56:01;;;;;;;3.90;3.47;;;14.50;42.20;;;;;;4975038;28;20508;-67
2024/03/25 10:58:28;;;;;;;3.37;2.53;;;15.10;41.40;;;;;;4974293;28;20495;-66
2024/03/25 11:00:56;;;;;;;3.83;2.90;;;16.90;39.90;;;;;;4974980;28;20471;-67
2024/03/25 11:03:23;;;;;;;2.53;2.33;;;19.50;35.20;;;;;;4974627;28;20853;-66
2024/03/25 11:05:49;;;;;;;2.60;2.40;;;22.70;31.10;;;;;;4972301;28;20424;-66
2024/03/25 11:08:16;;;;;;;5.67;2.70;;;23.20;27.70;;;;;;4974339;28;20440;-66
2024/03/25 11:10:43;;;;;;;2.83;2.33;;;23.20;27.30;;;;;;4975118;28;20438;-66
2024/03/25 11:13:12;;;;;;;2.80;2.17;;;23.90;25.80;;;;;;4975024;28;20439;-65
2024/03/25 11:15:43;;;;;;;4.70;2.27;;;25.00;24.60;;;;;;4972929;28;20448;-66
2024/03/25 11:18:25;;;;;;;4.73;3.83;;;25.50;22.40;;;;;;4974177;28;20434;-66
2024/03/25 11:21:04;;;;;;;2.23;2.13;;;26.00;21.90;;;;;;4972959;28;20843;-66
2024/03/25 11:23:40;;;;;;;2.50;2.30;;;24.50;22.40;;;;;;4970687;28;20454;-66
2024/03/25 11:26:30;;;;;;;5.30;2.33;;;24.80;22.20;;;;;;4973345;28;20570;-66
2024/03/25 11:28:55;;;;;;;2.87;2.43;;;25.30;21.70;;;;;;4974482;28;20435;-66
2024/03/25 11:31:24;;;;;;;3.43;2.70;;;23.20;22.10;;;;;;4974863;28;20936;-67
2024/03/25 11:33:49;;;;;;;2.80;2.60;;;21.20;24.30;;;;;;4974717;28;20211;-67
2024/03/25 11:36:15;;;;;;;3.33;3.10;;;20.60;24.70;;;;;;4974401;28;20419;-66
2024/03/25 11:38:43;;;;;;;2.30;2.10;;;21.80;25.00;;;;;;4973727;28;20200;-67
2024/03/25 11:41:10;;;;;;;4.73;3.60;;;23.30;24.60;;;;;;4974486;28;20176;-66
2024/03/25 11:43:36;;;;;;;2.83;2.40;;;24.70;22.30;;;;;;4974510;28;20451;-67
2024/03/25 11:46:02;;;;;;;3.20;2.80;;;24.70;22.30;;;;;;4974489;28;20515;-67
2024/03/25 11:48:29;;;;;;;3.10;2.57;;;25.90;21.40;;;;;;4973769;28;20172;-67
2024/03/25 11:50:55;;;;;;;3.33;2.80;;;25.90;20.90;;;;;;4974352;28;20463;-66
2024/03/25 11:53:20;;;;;;;4.80;2.50;;;24.70;21.60;;;;;;4973720;28;20803;-67
2024/03/25 11:55:47;;;;;;;2.63;2.43;;;25.40;21.20;;;;;;4974546;28;20196;-66
2024/03/25 11:58:17;;;;;;;2.80;2.47;;;26.30;21.00;;;;;;4973589;28;20471;-66
2024/03/25 12:00:49;;;;;;;2.50;2.17;;;25.10;20.70;;;;;;4964902;28;20446;-67
2024/03/25 12:03:15;;;;;;;3.07;2.63;;;27.30;20.20;;;;;;4972403;28;20939;-66
2024/03/25 12:05:41;;;;;;;3.30;3.00;;;27.00;19.00;;;;;;4972464;23;20507;-76
2024/03/25 12:08:10;;;;;;;3.17;2.87;;;28.50;18.20;;;;;;4953420;28;20813;-75
2024/03/25 12:13:21;;;;;;;2.93;2.70;;;27.30;17.70;;;;;;4954572;29;20423;-76
2024/03/25 12:15:48;;;;;;;3.60;2.80;;;29.20;17.40;;;;;;4954509;28;20468;-74
2024/03/25 12:18:14;;;;;;;5.13;3.30;;;29.40;16.60;;;;;;4953723;28;20173;-74
2024/03/25 12:20:40;;;;;;;2.70;2.50;;;30.50;16.00;;;;;;4954519;28;20465;-74
2024/03/25 12:23:06;;;;;;;2.90;2.60;;;31.10;15.00;;;;;;4952581;28;20432;-74
2024/03/25 12:25:32;;;;;;;2.97;2.77;;;30.50;14.80;;;;;;4954309;28;20204;-73
2024/03/25 12:27:57;;;;;;;4.43;3.10;;;30.20;14.80;;;;;;4952715;28;20448;-74
2024/03/25 12:30:22;;;;;;;5.67;2.90;;;27.10;15.20;;;;;;4954275;28;20666;-74
2024/03/25 12:32:50;;;;;;;5.90;3.53;;;25.80;17.40;;;;;;4953158;28;20181;-74
2024/03/25 12:35:16;;;;;;;2.60;2.40;;;28.00;16.20;;;;;;4952846;28;20204;-73
2024/03/25 12:37:47;;;;;;;3.03;2.80;;;29.60;15.20;;;;;;4943852;28;20441;-74
2024/03/25 12:40:25;;;;;;;3.83;3.23;;;30.30;14.30;;;;;;4935119;29;20445;-75
2024/03/25 12:42:55;;;;;;;3.63;2.93;;;30.50;14.20;;;;;;4934601;29;20425;-72
2024/03/25 12:45:22;;;;;;;2.87;2.43;;;30.70;14.00;;;;;;4951742;28;20487;-75
2024/03/25 12:47:47;;;;;;;3.23;2.93;;;29.70;13.70;;;;;;4971676;28;20823;-75
2024/03/25 12:50:13;;;;;;;3.63;3.00;;;29.20;14.00;;;;;;4963630;28;20543;-75
2024/03/25 12:52:38;;;;;;;5.00;4.33;;;27.80;14.40;;;;;;4956818;29;20259;-76
2024/03/25 12:55:04;;;;;;;2.60;2.40;;;28.30;14.50;;;;;;4957658;29;20280;-77
2024/03/25 12:57:30;;;;;;;3.20;2.87;;;28.40;14.60;;;;;;4954164;29;20180;-73